Time;durP1;ratioP1;P1;durP2;ratioP2;P2;SDS_P1;SDS_P2;PMS_P1;PMS_P2;Temp;Humidity;BMP_temperature;BMP_pressure;BME280_temperature;BME280_humidity;BME280_pressure;Samples;Min_cycle;Max_cycle;Signal;HPM_P1;HPM_P2
2023/04/27 00:00:49;;;;;;;45.00;26.70;;;;;;;3.39;89.87;99101.59;105900;1256;60373;-73
2023/04/27 00:03:17;;;;;;;33.50;24.20;;;;;;;3.40;89.74;99097.14;105885;1257;60459;-71
2023/04/27 00:05:43;;;;;;;40.10;24.00;;;;;;;3.43;89.62;99096.68;105877;1257;60463;-72
2023/04/27 00:08:09;;;;;;;34.40;22.70;;;;;;;3.46;89.48;99100.10;105841;1254;60427;-72
2023/04/27 00:10:35;;;;;;;37.30;22.10;;;;;;;3.48;89.37;99097.55;105880;1252;60555;-72
2023/04/27 00:13:01;;;;;;;37.70;22.30;;;;;;;3.52;89.30;99094.09;105709;1258;60492;-72
2023/04/27 00:15:28;;;;;;;35.00;22.50;;;;;;;3.54;89.41;99095.06;105915;1256;60447;-72
2023/04/27 00:17:54;;;;;;;39.00;23.30;;;;;;;3.58;89.47;99094.05;105863;1257;60485;-71
2023/04/27 00:20:20;;;;;;;40.80;23.80;;;;;;;3.61;89.60;99090.26;105911;1256;60463;-72
2023/04/27 00:22:46;;;;;;;35.00;21.50;;;;;;;3.65;89.74;99094.13;105869;1256;60462;-72
2023/04/27 00:25:12;;;;;;;36.60;21.00;;;;;;;3.69;89.67;99092.25;105906;1256;60460;-71
2023/04/27 00:27:38;;;;;;;33.20;20.60;;;;;;;3.71;89.72;99094.42;105537;1257;64546;-72
2023/04/27 00:30:05;;;;;;;32.20;20.10;;;;;;;3.72;89.80;99095.09;105868;1257;60485;-71
2023/04/27 00:32:31;;;;;;;36.20;21.30;;;;;;;3.74;89.97;99092.23;105725;1255;60487;-71
2023/04/27 00:34:57;;;;;;;33.50;20.60;;;;;;;3.76;90.24;99092.34;105833;1257;60527;-71
2023/04/27 00:37:23;;;;;;;34.90;22.10;;;;;;;3.78;90.93;99089.98;105867;1254;60449;-72
2023/04/27 00:39:49;;;;;;;37.10;21.30;;;;;;;3.78;90.86;99087.17;105849;1257;60466;-70
2023/04/27 00:42:18;;;;;;;31.40;19.60;;;;;;;3.78;91.25;99087.16;105860;1256;60479;-71
2023/04/27 00:44:46;;;;;;;33.60;21.70;;;;;;;3.77;91.23;99089.48;105891;1256;60402;-71
2023/04/27 00:47:14;;;;;;;29.80;19.50;;;;;;;3.76;91.47;99089.15;105878;1257;65233;-71
2023/04/27 00:49:40;;;;;;;32.20;21.40;;;;;;;3.74;91.73;99088.71;105837;1254;60417;-72
2023/04/27 00:52:06;;;;;;;33.50;20.80;;;;;;;3.71;91.99;99088.84;105531;1257;60952;-71
2023/04/27 00:54:32;;;;;;;35.00;21.00;;;;;;;3.67;92.28;99092.64;105686;1257;60457;-72
2023/04/27 00:56:58;;;;;;;37.90;22.80;;;;;;;3.63;92.44;99092.11;105821;1257;60066;-70
2023/04/27 00:59:25;;;;;;;38.60;22.80;;;;;;;3.59;92.63;99092.95;105892;1255;60456;-71
2023/04/27 01:01:52;;;;;;;41.50;22.70;;;;;;;3.56;92.96;99097.13;105861;1257;60607;-71
2023/04/27 01:04:18;;;;;;;36.70;23.50;;;;;;;3.50;92.90;99099.61;105835;1255;60547;-70
2023/04/27 01:06:44;;;;;;;37.60;24.30;;;;;;;3.45;92.97;99099.27;105869;1256;60667;-72
2023/04/27 01:09:10;;;;;;;33.70;23.10;;;;;;;3.41;92.97;99103.10;105913;1257;60367;-72
2023/04/27 01:11:36;;;;;;;39.10;22.80;;;;;;;3.36;93.34;99104.35;105522;1260;60462;-71
2023/04/27 01:14:04;;;;;;;39.40;24.30;;;;;;;3.28;94.01;99106.70;105851;1257;60469;-71
2023/04/27 01:16:32;;;;;;;39.90;23.10;;;;;;;3.23;94.27;99107.26;105829;1256;60549;-71
2023/04/27 01:18:58;;;;;;;42.80;25.00;;;;;;;3.16;94.70;99105.21;105841;1256;60536;-70
2023/04/27 01:21:25;;;;;;;40.50;24.50;;;;;;;3.09;95.27;99108.08;105542;1254;60546;-71
2023/04/27 01:23:51;;;;;;;40.20;25.40;;;;;;;3.02;95.92;99108.67;105884;1257;60527;-72
2023/04/27 01:26:17;;;;;;;38.80;24.10;;;;;;;2.95;96.47;99108.05;105897;1256;60495;-72
2023/04/27 01:28:43;;;;;;;34.30;23.00;;;;;;;2.87;96.78;99109.02;105823;1252;60466;-71
2023/04/27 01:31:10;;;;;;;35.40;23.60;;;;;;;2.79;97.15;99115.25;105872;1256;60569;-72
2023/04/27 01:33:37;;;;;;;40.80;25.80;;;;;;;2.72;97.87;99121.98;105919;1257;60468;-71
2023/04/27 01:36:03;;;;;;;40.40;25.60;;;;;;;2.64;98.20;99119.06;105833;1257;60453;-73
2023/04/27 01:38:32;;;;;;;46.20;28.70;;;;;;;2.59;98.52;99119.05;105135;1255;1002555;-74
2023/04/27 01:41:02;;;;;;;46.40;27.80;;;;;;;2.55;98.95;99122.34;105849;1256;64679;-74
2023/04/27 01:43:28;;;;;;;42.00;28.60;;;;;;;2.51;99.71;99121.96;105870;1252;60587;-74
2023/04/27 01:45:55;;;;;;;45.30;30.40;;;;;;;2.46;100.00;99126.50;105866;1254;60568;-73
2023/04/27 01:48:21;;;;;;;40.80;29.10;;;;;;;2.42;100.00;99126.98;105860;1254;60453;-72
2023/04/27 01:50:47;;;;;;;45.20;29.80;;;;;;;2.39;100.00;99128.81;105885;1254;61020;-74
2023/04/27 01:53:13;;;;;;;42.90;28.80;;;;;;;2.36;100.00;99126.45;105863;1254;60466;-72
2023/04/27 01:55:39;;;;;;;47.00;29.60;;;;;;;2.35;100.00;99128.45;105727;1257;60540;-73
2023/04/27 01:58:05;;;;;;;42.50;29.10;;;;;;;2.33;100.00;99125.67;105870;1258;60344;-73
2023/04/27 02:00:56;;;;;;;42.00;27.70;;;;;;;2.31;100.00;99126.29;105847;1257;60508;-72
2023/04/27 02:03:22;;;;;;;45.30;27.90;;;;;;;2.28;100.00;99129.00;105772;1257;69708;-71
2023/04/27 02:05:48;;;;;;;43.50;28.60;;;;;;;2.25;100.00;99126.45;105865;1257;60548;-72
2023/04/27 02:08:14;;;;;;;45.90;28.00;;;;;;;2.23;100.00;99127.92;105860;1255;60456;-72
2023/04/27 02:10:40;;;;;;;44.10;27.30;;;;;;;2.20;100.00;99131.17;105853;1254;60478;-71
2023/04/27 02:13:06;;;;;;;41.50;28.10;;;;;;;2.17;100.00;99129.33;105856;1254;60491;-71
2023/04/27 02:15:34;;;;;;;44.50;28.20;;;;;;;2.14;100.00;99128.70;105820;1255;60520;-70
2023/04/27 02:18:00;;;;;;;49.30;29.00;;;;;;;2.11;100.00;99127.77;105994;1255;60545;-71
2023/04/27 02:20:29;;;;;;;45.00;29.30;;;;;;;2.08;100.00;99128.56;105833;1256;60809;-72
2023/04/27 02:22:55;;;;;;;45.00;28.30;;;;;;;2.06;100.00;99130.39;105892;1257;60424;-71
2023/04/27 02:25:21;;;;;;;43.10;28.40;;;;;;;2.02;100.00;99127.86;105873;1257;65991;-71
2023/04/27 02:27:47;;;;;;;42.90;28.00;;;;;;;1.98;100.00;99127.11;105811;1257;60565;-71
2023/04/27 02:30:14;;;;;;;46.20;30.90;;;;;;;1.94;100.00;99127.91;105856;1256;60453;-72
2023/04/27 02:32:41;;;;;;;44.30;30.70;;;;;;;1.89;100.00;99130.89;105540;1260;60463;-71
2023/04/27 02:35:07;;;;;;;47.00;30.90;;;;;;;1.85;100.00;99132.02;105877;1255;60455;-71
2023/04/27 02:37:34;;;;;;;45.00;29.90;;;;;;;1.82;100.00;99134.07;105548;1258;60500;-71
2023/04/27 02:40:00;;;;;;;44.10;28.80;;;;;;;1.81;100.00;99136.21;105935;1258;60478;-72
2023/04/27 02:42:26;;;;;;;46.10;30.40;;;;;;;1.79;100.00;99138.02;105915;1254;60548;-72
2023/04/27 02:44:53;;;;;;;41.10;27.50;;;;;;;1.76;100.00;99139.33;105542;1258;60508;-72
2023/04/27 02:47:19;;;;;;;42.50;28.00;;;;;;;1.73;100.00;99137.11;105827;1256;59250;-72
2023/04/27 02:49:45;;;;;;;45.30;28.20;;;;;;;1.71;100.00;99133.84;105854;1254;60414;-73
2023/04/27 02:52:11;;;;;;;40.80;27.90;;;;;;;1.69;100.00;99137.94;105864;1254;60545;-72
2023/04/27 02:54:38;;;;;;;41.40;26.90;;;;;;;1.66;100.00;99133.11;105854;1254;60431;-73
2023/04/27 02:57:03;;;;;;;40.20;25.90;;;;;;;1.64;100.00;99135.44;105866;1257;60444;-72
2023/04/27 02:59:30;;;;;;;37.30;24.90;;;;;;;1.62;100.00;99139.73;105851;1257;60456;-75
2023/04/27 03:01:56;;;;;;;40.70;27.20;;;;;;;1.59;100.00;99136.31;105856;1256;60432;-73
2023/04/27 03:04:22;;;;;;;40.70;27.90;;;;;;;1.55;100.00;99136.92;105844;1257;60549;-72
2023/04/27 03:06:48;;;;;;;41.00;29.40;;;;;;;1.52;100.00;99140.34;105827;1256;60536;-71
2023/04/27 03:09:13;;;;;;;44.50;30.00;;;;;;;1.50;100.00;99140.75;105888;1254;60463;-72
2023/04/27 03:11:40;;;;;;;48.20;33.20;;;;;;;1.46;100.00;99143.83;105869;1257;60315;-72
2023/04/27 03:14:06;;;;;;;41.60;31.10;;;;;;;1.44;100.00;99141.45;105539;1259;60694;-72
2023/04/27 03:16:32;;;;;;;49.00;32.60;;;;;;;1.42;100.00;99142.89;105803;1253;60456;-71
2023/04/27 03:18:59;;;;;;;45.20;32.60;;;;;;;1.41;100.00;99143.29;105838;1254;60575;-72
2023/04/27 03:21:28;;;;;;;44.20;29.60;;;;;;;1.40;100.00;99148.39;106035;1257;60564;-71
2023/04/27 03:23:54;;;;;;;44.60;29.90;;;;;;;1.38;100.00;99148.60;105558;1259;65246;-72
2023/04/27 03:26:20;;;;;;;44.30;29.40;;;;;;;1.37;100.00;99148.29;105700;1254;60517;-72
2023/04/27 03:28:46;;;;;;;43.60;30.30;;;;;;;1.37;100.00;99151.61;105851;1253;60638;-72
2023/04/27 03:31:13;;;;;;;42.30;31.50;;;;;;;1.36;100.00;99156.89;105804;1255;60466;-71
2023/04/27 03:33:40;;;;;;;49.80;33.70;;;;;;;1.34;100.00;99159.55;105839;1253;60453;-73
2023/04/27 03:36:08;;;;;;;51.40;35.40;;;;;;;1.35;100.00;99163.92;105858;1255;60411;-73
2023/04/27 03:38:35;;;;;;;52.60;37.10;;;;;;;1.36;100.00;99165.30;105968;1254;60860;-73
2023/04/27 03:41:01;;;;;;;64.40;41.30;;;;;;;1.38;100.00;99165.76;105877;1254;60927;-72
2023/04/27 03:43:27;;;;;;;78.50;46.90;;;;;;;1.41;100.00;99166.02;105853;1257;60600;-72
2023/04/27 03:45:53;;;;;;;97.60;56.80;;;;;;;1.45;100.00;99168.19;105872;1256;60456;-73
2023/04/27 03:48:20;;;;;;;108.70;57.70;;;;;;;1.52;100.00;99171.16;105839;1254;60639;-71
2023/04/27 03:50:46;;;;;;;124.70;65.50;;;;;;;1.60;100.00;99174.63;105825;1254;60482;-73
2023/04/27 03:53:13;;;;;;;111.00;58.90;;;;;;;1.68;100.00;99176.66;105854;1256;60474;-72
2023/04/27 03:55:41;;;;;;;106.10;57.70;;;;;;;1.77;100.00;99176.94;105844;1256;60428;-71
2023/04/27 03:58:09;;;;;;;88.30;52.80;;;;;;;1.87;100.00;99176.49;105390;1252;61017;-72
2023/04/27 04:00:36;;;;;;;90.00;52.70;;;;;;;1.99;100.00;99177.02;105825;1258;65731;-72
2023/04/27 04:03:03;;;;;;;73.30;46.80;;;;;;;2.11;100.00;99183.32;105856;1254;60825;-72
2023/04/27 04:05:30;;;;;;;53.60;36.10;;;;;;;2.24;100.00;99188.18;105815;1253;64787;-71
2023/04/27 04:07:56;;;;;;;40.60;28.30;;;;;;;2.37;100.00;99186.58;105768;1253;60546;-72
2023/04/27 04:10:24;;;;;;;39.80;27.10;;;;;;;2.48;100.00;99181.83;105842;1254;60891;-72
2023/04/27 04:12:53;;;;;;;36.40;26.10;;;;;;;2.60;100.00;99178.48;105740;1260;65850;-72
2023/04/27 04:15:19;;;;;;;33.80;24.80;;;;;;;2.73;100.00;99181.77;105697;1254;60540;-73
2023/04/27 04:17:46;;;;;;;37.00;24.70;;;;;;;2.85;100.00;99186.48;105108;1254;1003121;-72
2023/04/27 04:20:12;;;;;;;36.70;24.80;;;;;;;2.97;100.00;99184.14;105847;1254;60479;-71
2023/04/27 04:22:38;;;;;;;36.50;23.50;;;;;;;3.31;100.00;99182.80;105472;1254;60427;-71
2023/04/27 04:25:06;;;;;;;36.30;23.20;;;;;;;3.62;100.00;99184.02;105835;1257;60453;-72
2023/04/27 04:27:32;;;;;;;33.10;23.10;;;;;;;3.78;100.00;99184.32;105554;1254;60363;-72
2023/04/27 04:29:59;;;;;;;32.80;22.80;;;;;;;4.26;100.00;99182.73;105841;1254;60421;-72
2023/04/27 04:32:30;;;;;;;34.20;23.20;;;;;;;4.95;100.00;99183.83;105703;1254;60497;-72
2023/04/27 04:35:00;;;;;;;28.50;22.30;;;;;;;5.39;100.00;99186.61;105849;1257;60467;-72
2023/04/27 04:37:26;;;;;;;28.40;22.40;;;;;;;5.76;100.00;99190.42;105905;1256;65336;-72
2023/04/27 04:39:53;;;;;;;27.90;20.40;;;;;;;6.34;99.80;99188.91;105857;1254;60792;-71
2023/04/27 04:42:19;;;;;;;29.20;20.70;;;;;;;7.13;96.86;99189.55;105825;1256;60456;-72
2023/04/27 04:44:45;;;;;;;25.10;19.60;;;;;;;7.94;93.19;99183.61;105857;1253;60444;-73
2023/04/27 04:47:11;;;;;;;29.00;18.00;;;;;;;8.53;90.31;99183.96;105855;1254;60459;-74
2023/04/27 04:49:38;;;;;;;23.50;17.80;;;;;;;8.97;87.29;99186.64;105830;1253;60484;-72
2023/04/27 04:52:03;;;;;;;23.90;16.60;;;;;;;8.73;87.00;99187.64;105854;1255;60462;-72
2023/04/27 04:54:30;;;;;;;25.00;15.60;;;;;;;8.46;86.88;99192.14;105793;1256;60462;-73
2023/04/27 04:56:57;;;;;;;23.90;15.50;;;;;;;8.28;86.20;99197.52;105886;1253;60578;-73
2023/04/27 04:59:23;;;;;;;17.90;13.20;;;;;;;8.31;85.35;99198.60;105842;1254;60489;-72
2023/04/27 05:01:49;;;;;;;19.50;12.40;;;;;;;8.47;83.97;99199.75;105825;1256;60879;-73
2023/04/27 05:04:17;;;;;;;15.60;12.50;;;;;;;8.64;82.49;99201.24;105865;1256;60837;-72
2023/04/27 05:06:43;;;;;;;14.90;12.10;;;;;;;8.69;81.95;99196.71;105849;1254;60438;-72
2023/04/27 05:09:09;;;;;;;16.40;12.10;;;;;;;8.90;81.20;99196.10;105831;1254;60456;-72
2023/04/27 05:11:35;;;;;;;16.70;12.70;;;;;;;8.91;80.57;99200.98;105884;1254;60417;-71
2023/04/27 05:14:01;;;;;;;17.20;12.40;;;;;;;8.92;80.36;99205.02;105864;1254;60478;-72
2023/04/27 05:16:27;;;;;;;18.20;11.90;;;;;;;9.12;79.01;99204.58;105831;1257;60539;-73
2023/04/27 05:18:53;;;;;;;16.90;11.70;;;;;;;9.09;78.97;99207.95;105835;1254;60466;-71
2023/04/27 05:21:20;;;;;;;19.30;12.40;;;;;;;8.94;78.40;99211.64;105884;1257;60420;-72
2023/04/27 05:23:48;;;;;;;16.10;11.40;;;;;;;8.76;78.24;99215.30;105817;1257;66044;-72
2023/04/27 05:26:16;;;;;;;14.90;11.20;;;;;;;8.88;78.09;99218.02;105935;1257;60564;-72
2023/04/27 05:28:42;;;;;;;18.00;12.10;;;;;;;9.02;77.67;99216.66;105755;1255;64654;-71
2023/04/27 05:31:08;;;;;;;15.60;11.50;;;;;;;8.97;77.31;99218.90;105905;1256;60543;-73
2023/04/27 05:33:34;;;;;;;18.10;12.10;;;;;;;8.87;77.70;99223.02;105904;1254;60904;-72
2023/04/27 05:36:00;;;;;;;17.00;11.80;;;;;;;8.86;78.03;99222.33;105839;1256;60442;-70
2023/04/27 05:38:26;;;;;;;19.80;12.10;;;;;;;8.83;77.72;99228.75;105850;1256;60466;-72
2023/04/27 05:40:57;;;;;;;17.10;11.60;;;;;;;8.73;77.86;99229.28;105843;1257;60885;-72
2023/04/27 05:43:24;;;;;;;16.80;12.00;;;;;;;8.71;78.23;99233.79;105848;1255;135006;-72
2023/04/27 05:45:51;;;;;;;18.80;12.00;;;;;;;8.70;78.04;99234.22;105944;1251;60475;-71
2023/04/27 05:48:18;;;;;;;17.40;11.60;;;;;;;8.68;77.84;99237.16;106048;1254;65310;-72
2023/04/27 05:50:44;;;;;;;16.80;11.70;;;;;;;8.69;77.58;99241.02;105726;1255;60380;-72
2023/04/27 05:53:10;;;;;;;17.10;11.60;;;;;;;8.73;77.45;99240.98;105660;1257;60444;-72
2023/04/27 05:55:37;;;;;;;15.00;10.30;;;;;;;8.74;77.36;99240.21;105923;1254;60557;-71
2023/04/27 05:58:03;;;;;;;19.80;10.60;;;;;;;8.73;76.94;99236.34;105933;1253;60342;-72
2023/04/27 06:00:30;;;;;;;15.40;10.50;;;;;;;8.78;76.69;99238.56;105555;1254;60505;-73
2023/04/27 06:02:56;;;;;;;14.40;9.90;;;;;;;8.82;76.28;99237.10;105905;1254;60520;-72
2023/04/27 06:05:22;;;;;;;15.60;10.40;;;;;;;8.87;76.03;99241.45;105916;1256;62391;-70
2023/04/27 06:07:48;;;;;;;13.20;9.70;;;;;;;8.91;76.00;99241.21;105938;1251;60421;-71
2023/04/27 06:10:15;;;;;;;14.80;9.80;;;;;;;8.96;76.16;99238.97;105936;1251;60489;-71
2023/04/27 06:12:41;;;;;;;15.30;10.30;;;;;;;9.08;76.06;99235.61;105776;1251;60533;-72
2023/04/27 06:15:09;;;;;;;12.60;9.30;;;;;;;9.22;75.59;99235.38;105870;1256;60449;-73
2023/04/27 06:17:35;;;;;;;15.20;10.30;;;;;;;9.36;74.78;99236.70;105820;1254;60482;-73
2023/04/27 06:20:03;;;;;;;16.70;10.80;;;;;;;9.63;74.57;99241.16;105891;1251;60498;-72
2023/04/27 06:22:37;;;;;;;13.10;9.10;;;;;;;10.03;73.60;99243.53;105940;1254;60348;-72
2023/04/27 06:25:06;;;;;;;15.20;9.70;;;;;;;10.25;72.95;99243.10;105927;1254;65902;-71
2023/04/27 06:27:33;;;;;;;12.50;8.80;;;;;;;10.44;72.39;99241.04;105959;1254;60856;-72
2023/04/27 06:29:59;;;;;;;12.80;9.90;;;;;;;10.72;71.67;99242.66;105919;1251;64052;-72
2023/04/27 06:32:25;;;;;;;16.90;9.80;;;;;;;10.84;70.68;99241.55;105704;1256;60456;-72
2023/04/27 06:34:51;;;;;;;13.60;10.00;;;;;;;10.74;70.28;99249.30;105892;1251;60450;-73
2023/04/27 06:37:17;;;;;;;14.20;9.40;;;;;;;10.63;70.57;99253.55;105978;1251;60561;-72
2023/04/27 06:39:43;;;;;;;14.60;9.40;;;;;;;10.58;70.62;99251.17;105937;1254;60566;-72
2023/04/27 06:42:10;;;;;;;16.50;10.30;;;;;;;10.81;69.77;99255.06;105826;1251;60559;-73
2023/04/27 06:44:37;;;;;;;18.10;10.60;;;;;;;11.18;69.11;99255.50;105965;1254;60420;-73
2023/04/27 06:47:03;;;;;;;15.40;8.80;;;;;;;11.55;67.49;99254.36;105730;1257;60718;-71
2023/04/27 06:49:29;;;;;;;17.90;10.30;;;;;;;11.80;67.39;99250.33;105908;1251;60465;-73
2023/04/27 06:51:55;;;;;;;13.60;10.40;;;;;;;11.99;66.83;99251.42;105904;1254;60487;-71
2023/04/27 06:54:21;;;;;;;13.00;10.40;;;;;;;12.09;66.33;99249.27;105899;1251;60481;-74
2023/04/27 06:56:46;;;;;;;14.70;9.20;;;;;;;12.02;65.96;99253.65;105925;1251;60430;-72
2023/04/27 06:59:13;;;;;;;13.20;8.10;;;;;;;11.90;65.29;99253.80;105779;1257;65299;-71
2023/04/27 07:01:39;;;;;;;14.40;8.40;;;;;;;11.73;64.18;99251.91;105669;1260;60342;-73
2023/04/27 07:04:05;;;;;;;11.20;8.30;;;;;;;11.49;63.73;99251.73;105889;1251;60540;-72
2023/04/27 07:06:32;;;;;;;15.30;9.30;;;;;;;11.10;62.65;99252.13;105954;1251;60290;-72
2023/04/27 07:08:58;;;;;;;11.20;8.90;;;;;;;10.92;64.02;99259.73;105793;1257;60641;-72
2023/04/27 07:11:25;;;;;;;13.90;8.70;;;;;;;10.97;63.98;99262.91;105649;1256;60545;-72
2023/04/27 07:13:51;;;;;;;11.10;8.20;;;;;;;10.98;63.54;99264.45;105976;1254;60539;-73
2023/04/27 07:16:18;;;;;;;12.40;8.40;;;;;;;10.93;64.11;99267.81;105903;1254;60433;-72
2023/04/27 07:18:44;;;;;;;11.00;7.30;;;;;;;10.88;64.30;99268.52;105959;1250;60517;-72
2023/04/27 07:21:10;;;;;;;12.10;7.00;;;;;;;10.77;63.46;99270.79;105912;1251;60461;-72
2023/04/27 07:23:38;;;;;;;11.20;7.50;;;;;;;10.64;63.93;99274.06;105896;1251;60450;-73
2023/04/27 07:26:04;;;;;;;12.00;7.70;;;;;;;10.63;64.39;99269.70;105712;1251;60543;-73
2023/04/27 07:28:31;;;;;;;10.50;8.60;;;;;;;10.73;64.34;99267.68;106105;1251;60529;-72
2023/04/27 07:30:57;;;;;;;14.00;8.60;;;;;;;10.83;64.55;99267.39;105926;1251;60539;-72
2023/04/27 07:33:23;;;;;;;10.20;7.80;;;;;;;10.97;64.62;99264.89;105441;1262;60521;-73
2023/04/27 07:35:50;;;;;;;13.70;8.80;;;;;;;10.99;64.19;99262.09;105938;1254;60300;-71
2023/04/27 07:38:16;;;;;;;11.10;7.80;;;;;;;11.08;64.57;99259.91;105961;1250;60440;-72
2023/04/27 07:40:42;;;;;;;11.90;6.70;;;;;;;11.28;64.58;99257.05;105916;1254;60421;-72
2023/04/27 07:43:09;;;;;;;14.30;7.20;;;;;;;11.51;64.21;99255.15;105913;1252;60539;-72
2023/04/27 07:45:38;;;;;;;8.90;4.90;;;;;;;11.82;63.96;99248.25;105975;1253;60571;-73
2023/04/27 07:48:04;;;;;;;8.10;5.10;;;;;;;12.11;60.85;99249.70;105955;1251;64163;-71
2023/04/27 07:50:30;;;;;;;10.10;5.20;;;;;;;12.14;56.59;99248.40;105628;1251;60405;-73
2023/04/27 07:52:57;;;;;;;6.90;4.00;;;;;;;12.26;57.26;99244.51;105945;1251;60537;-73
2023/04/27 07:55:24;;;;;;;6.50;3.90;;;;;;;12.53;57.09;99241.73;105959;1254;60520;-71
2023/04/27 07:57:52;;;;;;;7.70;6.30;;;;;;;12.67;57.28;99245.23;105956;1251;60484;-73
2023/04/27 08:00:19;;;;;;;9.60;5.70;;;;;;;12.71;57.53;99245.45;106022;1251;65788;-73
2023/04/27 08:02:45;;;;;;;11.50;6.10;;;;;;;12.64;57.22;99244.55;105940;1251;60425;-72
2023/04/27 08:05:12;;;;;;;7.80;5.10;;;;;;;12.59;57.28;99248.10;105974;1250;60453;-75
2023/04/27 08:07:38;;;;;;;7.40;4.40;;;;;;;12.53;56.53;99248.52;106015;1250;60437;-73
2023/04/27 08:10:06;;;;;;;5.50;3.40;;;;;;;12.45;56.20;99243.05;105889;1250;60552;-72
2023/04/27 08:12:33;;;;;;;5.20;3.60;;;;;;;12.37;54.66;99247.17;105678;1259;66011;-72
2023/04/27 08:14:59;;;;;;;5.40;3.30;;;;;;;12.43;55.17;99245.30;106002;1251;60549;-73
2023/04/27 08:17:25;;;;;;;6.50;3.60;;;;;;;12.76;54.82;99246.30;106003;1251;60501;-71
2023/04/27 08:19:52;;;;;;;5.80;3.30;;;;;;;13.07;54.57;99242.86;105946;1254;60475;-72
2023/04/27 08:22:18;;;;;;;5.70;3.60;;;;;;;13.37;54.86;99241.58;105708;1259;60514;-72
2023/04/27 08:24:44;;;;;;;7.40;3.90;;;;;;;13.47;54.01;99241.33;105898;1254;60354;-72
2023/04/27 08:27:10;;;;;;;7.50;4.00;;;;;;;13.33;53.70;99237.37;105956;1251;60560;-72
2023/04/27 08:29:36;;;;;;;7.00;4.00;;;;;;;13.11;53.47;99242.94;105684;1258;60536;-73
2023/04/27 08:32:03;;;;;;;9.40;5.50;;;;;;;12.62;50.79;99244.66;105899;1254;60536;-73
2023/04/27 08:34:30;;;;;;;5.90;4.40;;;;;;;12.06;51.86;99251.10;106187;1254;60354;-72
2023/04/27 08:36:56;;;;;;;8.90;5.60;;;;;;;11.64;52.76;99254.79;105743;1257;60550;-71
2023/04/27 08:39:23;;;;;;;9.40;5.50;;;;;;;11.40;53.42;99258.90;105921;1253;60443;-72
2023/04/27 08:41:50;;;;;;;8.60;6.00;;;;;;;11.27;53.18;99263.52;105899;1253;60453;-72
2023/04/27 08:44:16;;;;;;;7.70;5.20;;;;;;;11.11;53.20;99258.83;105885;1251;60412;-72
2023/04/27 08:46:42;;;;;;;7.30;5.10;;;;;;;10.92;53.85;99265.05;105725;1251;60481;-71
2023/04/27 08:49:08;;;;;;;5.70;4.70;;;;;;;10.82;54.69;99266.55;105795;1253;61153;-71
2023/04/27 08:51:34;;;;;;;6.70;5.40;;;;;;;10.75;55.23;99271.77;105896;1251;60456;-72
2023/04/27 08:54:01;;;;;;;9.20;6.00;;;;;;;10.69;56.05;99277.52;105881;1251;60670;-73
2023/04/27 08:56:28;;;;;;;9.40;4.70;;;;;;;10.68;56.37;99278.66;105921;1254;60488;-73
2023/04/27 08:58:56;;;;;;;9.40;4.90;;;;;;;10.67;56.57;99279.41;105925;1254;60389;-73
2023/04/27 09:01:24;;;;;;;7.00;5.60;;;;;;;10.65;56.79;99276.18;105640;1251;60527;-73
2023/04/27 09:04:06;;;;;;;8.90;4.80;;;;;;;10.63;56.47;99280.76;105663;1251;60447;-72
2023/04/27 09:06:34;;;;;;;6.10;5.00;;;;;;;10.54;56.75;99278.62;105947;1251;73339;-73
2023/04/27 09:09:01;;;;;;;8.90;4.80;;;;;;;10.45;56.72;99281.51;106029;1254;60513;-71
2023/04/27 09:11:32;;;;;;;6.40;4.90;;;;;;;10.30;57.20;99281.17;105966;1254;60453;-75
2023/04/27 09:14:01;;;;;;;13.70;5.30;;;;;;;10.18;57.55;99283.46;106094;1251;65694;-73
2023/04/27 09:16:29;;;;;;;10.00;5.80;;;;;;;10.09;58.04;99284.34;105998;1251;60415;-74
2023/04/27 09:18:56;;;;;;;7.40;6.10;;;;;;;10.03;58.59;99289.15;105913;1254;72665;-75
2023/04/27 09:21:26;;;;;;;9.30;5.80;;;;;;;9.92;58.25;99289.45;105546;1259;60568;-74
2023/04/27 09:23:54;;;;;;;10.80;6.10;;;;;;;9.78;58.73;99287.30;106126;1250;60951;-73
2023/04/27 09:26:23;;;;;;;8.90;5.70;;;;;;;9.75;59.13;99285.00;106127;1251;66017;-73
2023/04/27 09:28:53;;;;;;;8.50;6.00;;;;;;;9.82;59.27;99281.73;105755;1259;60404;-72
2023/04/27 09:41:57;;;;;;;9.20;6.00;;;;;;;10.68;59.09;99269.77;102670;1289;600878;-74
2023/04/27 09:44:27;;;;;;;11.60;5.30;;;;;;;11.38;58.46;99262.20;104738;1269;59296;-73
2023/04/27 09:46:56;;;;;;;9.10;6.20;;;;;;;12.15;58.16;99259.92;105051;1264;59670;-73
2023/04/27 09:49:25;;;;;;;8.00;5.00;;;;;;;12.82;57.26;99260.70;104992;1270;63273;-73
2023/04/27 09:51:54;;;;;;;8.30;5.40;;;;;;;13.28;55.29;99254.17;105076;1264;61008;-73
2023/04/27 09:54:26;;;;;;;9.30;5.60;;;;;;;13.53;53.85;99255.91;105018;1267;64072;-72
2023/04/27 09:57:31;;;;;;;7.60;5.10;;;;;;;13.64;54.01;99251.88;104918;1263;59314;-73
2023/04/27 10:00:18;;;;;;;7.00;5.70;;;;;;;13.85;53.02;99253.87;105716;1257;59234;-72
2023/04/27 10:02:54;;;;;;;6.10;5.40;;;;;;;13.83;51.97;99256.11;105619;1257;63273;-72
2023/04/27 10:05:36;;;;;;;10.40;6.20;;;;;;;13.80;51.92;99254.55;105621;1254;59244;-72
2023/04/27 10:08:04;;;;;;;11.20;6.20;;;;;;;13.79;51.71;99253.06;105680;1257;63560;-73
2023/04/27 10:10:47;;;;;;;9.00;5.90;;;;;;;13.77;50.96;99256.23;105733;1256;61226;-72
2023/04/27 10:16:57;;;;;;;8.10;5.90;;;;;;;13.25;50.40;99257.79;105700;1255;63189;-72
2023/04/27 10:19:24;;;;;;;10.30;6.60;;;;;;;13.13;50.07;99260.44;105716;1256;59803;-71
2023/04/27 10:22:01;;;;;;;9.50;6.10;;;;;;;13.02;49.85;99261.40;105864;1258;64219;-73
2023/04/27 10:24:38;;;;;;;7.80;5.30;;;;;;;12.91;49.99;99262.18;105693;1258;59692;-73
2023/04/27 10:27:07;;;;;;;6.50;4.70;;;;;;;12.90;50.10;99259.98;105824;1256;59554;-72
2023/04/27 10:29:36;;;;;;;7.30;5.00;;;;;;;12.88;49.64;99253.52;105421;1263;64187;-71
2023/04/27 10:32:23;;;;;;;9.00;5.30;;;;;;;12.86;49.74;99251.35;105478;1254;60208;-71
2023/04/27 10:34:51;;;;;;;7.70;4.50;;;;;;;13.12;49.86;99244.29;105643;1254;63729;-72
2023/04/27 10:37:24;;;;;;;7.00;5.20;;;;;;;13.55;49.64;99238.09;105628;1254;59663;-72
2023/04/27 10:39:51;;;;;;;5.60;4.20;;;;;;;13.98;49.98;99240.70;105674;1254;59750;-72
2023/04/27 10:42:27;;;;;;;6.70;4.40;;;;;;;14.24;47.97;99240.64;105690;1257;65015;-72
2023/04/27 10:44:56;;;;;;;6.50;4.50;;;;;;;14.26;47.51;99242.62;105805;1257;60972;-72
2023/04/27 10:47:34;;;;;;;7.10;4.70;;;;;;;14.17;47.27;99246.16;105729;1254;63417;-71
2023/04/27 10:50:03;;;;;;;7.90;4.60;;;;;;;14.13;47.69;99249.71;105667;1257;59753;-72
2023/04/27 10:52:29;;;;;;;6.10;4.80;;;;;;;14.21;47.40;99247.84;105689;1254;59861;-72
2023/04/27 10:54:56;;;;;;;7.70;5.30;;;;;;;14.11;47.08;99251.84;105679;1254;64466;-71
2023/04/27 10:57:22;;;;;;;7.10;5.00;;;;;;;13.87;46.72;99252.10;105642;1254;60909;-71
2023/04/27 10:59:52;;;;;;;8.60;5.00;;;;;;;13.67;46.74;99254.15;105609;1254;64579;-72
2023/04/27 11:02:28;;;;;;;6.30;4.10;;;;;;;13.49;47.35;99259.21;105557;1254;60127;-72
2023/04/27 11:04:55;;;;;;;8.20;6.70;;;;;;;13.26;46.89;99261.07;105691;1254;59634;-72
2023/04/27 11:07:26;;;;;;;6.70;4.70;;;;;;;13.02;46.94;99261.79;105635;1254;64033;-72
2023/04/27 11:09:53;;;;;;;7.30;4.60;;;;;;;12.88;46.87;99265.08;105399;1261;60783;-73
2023/04/27 11:12:20;;;;;;;5.90;4.50;;;;;;;12.68;46.73;99263.48;105671;1254;63704;-72
2023/04/27 11:14:46;;;;;;;7.00;3.80;;;;;;;12.54;46.82;99263.44;105344;1254;60077;-72
2023/04/27 11:17:13;;;;;;;9.80;4.00;;;;;;;12.55;46.99;99264.38;105619;1256;59673;-72
2023/04/27 11:19:47;;;;;;;8.60;4.20;;;;;;;12.68;46.41;99264.92;105669;1254;64449;-72
2023/04/27 11:22:17;;;;;;;5.60;4.00;;;;;;;12.81;46.37;99264.16;105589;1254;60921;-73
2023/04/27 11:24:49;;;;;;;6.80;4.40;;;;;;;13.02;46.52;99259.44;105603;1259;64058;-73
2023/04/27 11:27:16;;;;;;;6.10;3.60;;;;;;;13.33;47.00;99253.83;105666;1259;59641;-72
2023/04/27 11:29:43;;;;;;;6.40;4.00;;;;;;;13.64;45.79;99256.02;105667;1254;59659;-72
2023/04/27 11:32:21;;;;;;;6.10;4.10;;;;;;;13.83;46.03;99249.73;105688;1259;64970;-72